Data for 01/13/2010

Time Sea-Level Adjusted Pressure Absolute Pressure Temperature Relative Humidity Dew Point   
(mb) (inHg) (mb) (inHg) (C) (F) (%) (C) (F)
00:05 1015 29.97 844 24.92 6.4 43.6 50 -3.1 26.4
00:10 1015 29.97 844 24.92 6.3 43.4 51 -3.2 26.3
00:15 1015 29.97 844 24.92 6.3 43.3 51 -3.1 26.5
00:20 1015 29.97 844 24.92 6.2 43.1 53 -2.7 27.1
00:25 1015 29.97 844 24.92 6 42.7 54 -2.6 27.3
00:30 1015 29.97 844 24.92 5.7 42.3 56 -2.4 27.7
00:35 1015 29.97 844 24.92 5.5 41.9 58 -2.2 28.1
00:40 1015 29.97 844 24.92 5.2 41.4 58 -2.3 27.8
00:45 1015 29.97 844 24.92 5.2 41.4 58 -2.4 27.7
00:50 1015 29.97 844 24.92 5.3 41.6 59 -2 28.3
00:55 1015 29.97 844 24.92 5.1 41.1 59 -2.4 27.8
01:00 1015 29.97 844 24.92 5.2 41.3 58 -2.5 27.5
01:05 1015 29.97 844 24.92 5.3 41.5 57 -2.4 27.6
01:10 1015 29.97 844 24.92 5.3 41.5 58 -2.3 27.8
01:15 1015 29.97 844 24.92 5.3 41.5 58 -2.2 28
01:20 1015 29.97 844 24.92 5.3 41.5 58 -2.3 27.9
01:25 1015 29.97 844 24.92 5.3 41.5 57 -2.5 27.5
01:30 1015 29.97 844 24.92 5.3 41.6 58 -2.2 28
01:35 1015 29.97 844 24.92 5.2 41.4 59 -2.1 28.2
01:40 1015 29.97 844 24.92 5.1 41.3 60 -2 28.4
01:45 1015 29.97 844 24.92 4.9 40.8 62 -1.8 28.8
01:50 1015 29.97 844 24.92 4.7 40.4 62 -2 28.4
01:55 1015 29.97 844 24.92 4.7 40.4 62 -1.9 28.6
02:00 1015 29.97 844 24.92 4.7 40.4 62 -2 28.4
02:05 1015 29.97 844 24.92 4.7 40.4 62 -2 28.3
02:10 1015 29.97 844 24.92 4.7 40.5 59 -2.5 27.5
02:15 1015 29.97 844 24.92 5 41 59 -2.4 27.7
02:20 1015 29.97 844 24.92 5.2 41.3 59 -2.3 27.9
02:25 1015 29.97 844 24.92 5.1 41.2 59 -2.1 28.2
02:30 1015 29.97 844 24.92 5 41 59 -2.3 27.9
02:35 1015 29.97 844 24.92 5 41 59 -2.2 28
02:40 1015 29.97 845 24.95 5 41 60 -2.1 28.2
02:45 1015 29.97 845 24.95 4.8 40.6 61 -2.2 28.1
02:50 1015 29.97 845 24.95 4.7 40.5 61 -2.1 28.2
02:55 1015 29.97 845 24.95 4.7 40.4 61 -2.2 28
03:00 1015 29.97 845 24.95 4.9 40.8 58 -2.8 26.9
03:05 1015 29.97 844 24.92 5.2 41.4 57 -2.7 27.2
03:10 1015 29.97 844 24.92 5.3 41.5 56 -2.9 26.8
03:15 1015 29.97 844 24.92 5.6 42.1 53 -3.2 26.2
03:20 1015 29.97 844 24.92 5.8 42.4 53 -3 26.6
03:25 1015 29.97 845 24.95 5.6 42.1 54 -3 26.6
03:30 1015 29.97 845 24.95 5.6 42.1 54 -3 26.6
03:35 1015 29.97 845 24.95 5.6 42.1 53 -3.3 26.1
03:40 1015 29.97 845 24.95 5.8 42.4 52 -3.3 26
03:45 1015 29.97 845 24.95 5.9 42.6 52 -3.3 26.1
03:50 1016 30 845 24.95 5.8 42.4 52 -3.4 25.9
03:55 1016 30 845 24.95 5.8 42.4 53 -3.1 26.5
04:00 1016 30 845 24.95 5.6 42.1 54 -2.9 26.8
04:05 1016 30 845 24.95 5.4 41.7 55 -2.9 26.7
04:10 1016 30 845 24.95 5.3 41.6 55 -3 26.6
04:15 1016 30 845 24.95 5.3 41.5 55 -2.9 26.7
04:20 1016 30 845 24.95 5.2 41.4 55 -3 26.5
04:25 1015 29.97 845 24.95 5.2 41.4 54 -3.2 26.2
04:30 1016 30 845 24.95 5.2 41.4 56 -2.8 27
04:35 1016 30 845 24.95 4.8 40.7 59 -2.5 27.5
04:40 1016 30 845 24.95 4.8 40.6 57 -3.1 26.4
04:45 1016 30 845 24.95 5.1 41.2 55 -3.1 26.4
04:50 1015 29.97 845 24.95 5.1 41.2 56 -2.9 26.7
04:55 1015 29.97 845 24.95 5 41 55 -3.4 25.9
05:00 1015 29.97 845 24.95 5.2 41.3 54 -3.3 26
05:05 1015 29.97 845 24.95 5.4 41.7 53 -3.3 26
05:10 1015 29.97 845 24.95 5.4 41.7 53 -3.5 25.7
05:15 1015 29.97 845 24.95 5.4 41.7 54 -3.1 26.4
05:20 1016 30 845 24.95 5.3 41.6 53 -3.5 25.7
05:25 1016 30 845 24.95 5.5 41.8 55 -3 26.7
05:30 1016 30 845 24.95 5.3 41.5 56 -2.7 27.1
05:35 1015 29.97 845 24.95 5 40.9 57 -2.8 26.9
05:40 1015 29.97 845 24.95 4.9 40.8 57 -2.9 26.8
05:45 1015 29.97 845 24.95 4.8 40.7 57 -3 26.6
05:50 1015 29.97 845 24.95 4.8 40.6 58 -2.8 27
05:55 1015 29.97 844 24.92 4.5 40.1 62 -2.1 28.2
06:00 1015 29.97 844 24.92 4 39.2 65 -2.1 28.3
06:05 1015 29.97 844 24.92 3.8 38.8 64 -2.5 27.5
06:10 1015 29.97 844 24.92 3.9 39 63 -2.6 27.4
06:15 1015 29.97 844 24.92 3.8 38.9 63 -2.6 27.3
06:20 1015 29.97 844 24.92 4 39.1 63 -2.5 27.6
06:25 1015 29.97 844 24.92 3.8 38.9 62 -2.8 27
06:30 1015 29.97 844 24.92 4 39.2 62 -2.6 27.3
06:35 1015 29.97 844 24.92 4 39.1 61 -2.8 26.9
06:40 1015 29.97 845 24.95 4 39.3 61 -2.8 26.9
06:45 1015 29.97 845 24.95 4.1 39.3 60 -2.9 26.8
06:50 1015 29.97 845 24.95 4.1 39.4 60 -2.9 26.8
06:55 1015 29.97 845 24.95 4.1 39.4 61 -2.8 26.9
07:00 1015 29.97 845 24.95 4 39.2 61 -2.9 26.8
07:05 1015 29.97 845 24.95 3.9 39.1 61 -2.9 26.8
07:10 1015 29.97 845 24.95 3.8 38.9 61 -2.9 26.8
07:15 1015 29.97 845 24.95 3.7 38.7 62 -2.8 26.9
07:20 1015 29.97 845 24.95 3.5 38.4 63 -2.8 26.9
07:25 1015 29.97 845 24.95 2.9 37.3 67 -2.6 27.3
07:30 1015 29.97 845 24.95 2.5 36.5 67 -3 26.7
07:35 1015 29.97 845 24.95 2.4 36.2 67 -3.1 26.4
07:40 1015 29.97 845 24.95 2.3 36.2 67 -3.1 26.3
07:45 1015 29.97 845 24.95 2.4 36.4 66 -3.3 26.1
07:50 1015 29.97 844 24.92 2.6 36.7 65 -3.2 26.2
07:55 1015 29.97 844 24.92 2.7 36.8 65 -3.3 26
08:00 1015 29.97 844 24.92 2.7 36.9 64 -3.3 26
08:05 1015 29.97 845 24.95 2.6 36.6 64 -3.6 25.6
08:10 1015 29.97 844 24.92 2.8 37 63 -3.6 25.5
08:15 1015 29.97 845 24.95 2.6 36.7 64 -3.6 25.5
08:20 1015 29.97 845 24.95 2.6 36.6 63 -3.7 25.3
08:25 1015 29.97 845 24.95 2.6 36.7 63 -3.8 25.2
08:30 1015 29.97 845 24.95 2.6 36.6 63 -3.8 25.2
08:35 1015 29.97 845 24.95 2.5 36.5 63 -3.8 25.2
08:40 1015 29.97 845 24.95 2.6 36.7 62 -3.9 25
08:45 1015 29.97 845 24.95 2.6 36.8 63 -3.8 25.2
08:50 1015 29.97 845 24.95 2.6 36.8 60 -4.2 24.4
08:55 1015 29.97 844 24.92 2.8 37 60 -4.1 24.6
09:00 1015 29.97 844 24.92 2.8 37.1 60 -4.2 24.5
09:05 1015 29.97 844 24.92 2.9 37.3 58 -4.4 24
09:10 1015 29.97 844 24.92 3 37.3 58 -4.5 24
09:15 1015 29.97 844 24.92 3 37.4 57 -4.7 23.6
09:20 1015 29.97 845 24.95 3.1 37.6 56 -4.8 23.3
09:25 1015 29.97 845 24.95 3.1 37.7 56 -4.8 23.4
09:30 1015 29.97 845 24.95 3.1 37.5 57 -4.7 23.5
09:35 1015 29.97 845 24.95 3 37.4 56 -5 23
09:40 1015 29.97 845 24.95 3.1 37.6 55 -5 22.9
09:45 1015 29.97 845 24.95 3.5 38.3 54 -4.9 23.2
09:50 1016 30 845 24.95 3.7 38.6 54 -4.8 23.4
09:55 1016 30 845 24.95 3.5 38.4 55 -4.6 23.7
10:00 1016 30 845 24.95 3.5 38.3 55 -4.7 23.5
10:05 1016 30 845 24.95 3.6 38.4 55 -4.7 23.6
10:10 1016 30 845 24.95 3.7 38.7 54 -4.8 23.4
10:15 1016 30 845 24.95 4.4 40 51 -4.9 23.1
10:20 1016 30 845 24.95 4.7 40.5 51 -4.5 24
10:25 1016 30 845 24.95 4.7 40.5 51 -4.6 23.7
10:30 1016 30 845 24.95 4.7 40.4 52 -4.5 23.9
10:35 1015 29.97 845 24.95 5 41 49 -4.8 23.4
10:40 1015 29.97 845 24.95 5.3 41.6 49 -4.6 23.8
10:45 1015 29.97 845 24.95 5.5 41.8 48 -4.7 23.6
10:50 1015 29.97 845 24.95 5.4 41.7 49 -4.5 23.8
10:55 1015 29.97 845 24.95 5.6 42.1 48 -4.4 24.1
11:00 1015 29.97 845 24.95 6 42.7 48 -4.3 24.2
11:05 1015 29.97 845 24.95 6.6 43.8 44 -4.8 23.4
11:10 1015 29.97 845 24.95 7.1 44.8 44 -4.3 24.3
11:15 1015 29.97 845 24.95 7.9 46.2 43 -4 24.9
11:20 1015 29.97 845 24.95 8.1 46.6 42 -4 24.8
11:25 1015 29.97 844 24.92 7 44.6 48 -3.4 25.9
11:30 1015 29.97 844 24.92 7.3 45.1 44 -4.2 24.5
11:35 1015 29.97 844 24.92 7.9 46.3 43 -3.7 25.3
11:40 1015 29.97 844 24.92 8.1 46.5 43 -3.9 25
11:45 1015 29.97 844 24.92 7.6 45.6 46 -3.3 26
11:50 1015 29.97 844 24.92 7.4 45.4 45 -3.8 25.1
11:55 1015 29.97 844 24.92 7.3 45.2 46 -3.5 25.8
12:00 1015 29.97 844 24.92 7.4 45.2 45 -3.7 25.3
12:05 1015 29.97 844 24.92 7.5 45.5 46 -3.5 25.8
12:10 1015 29.97 844 24.92 7.3 45.2 46 -3.4 25.9
12:15 1015 29.97 844 24.92 7.2 45 48 -3.2 26.3
12:20 1015 29.97 844 24.92 7 44.5 49 -3 26.6
12:25 1015 29.97 844 24.92 6.4 43.6 49 -3.4 25.9
12:30 1015 29.97 844 24.92 7.1 44.7 46 -3.6 25.5
12:35 1015 29.97 844 24.92 7.5 45.5 45 -3.6 25.6
12:40 1015 29.97 844 24.92 7.7 45.8 46 -3.3 26.1
12:45 1015 29.97 844 24.92 7.7 45.9 44 -3.8 25.2
12:50 1015 29.97 844 24.92 7.8 46.1 43 -3.8 25.1
12:55 1014 29.94 844 24.92 7.6 45.7 47 -3 26.7
13:00 1014 29.94 844 24.92 6.5 43.8 48 -3.7 25.3
13:05 1014 29.94 844 24.92 6.3 43.4 49 -3.6 25.6
13:10 1014 29.94 843 24.89 7 44.6 46 -3.9 24.9
13:15 1014 29.94 843 24.89 7.1 44.7 47 -3.4 25.9
13:20 1014 29.94 843 24.89 5.6 42 52 -3.5 25.7
13:25 1014 29.94 843 24.89 6.4 43.5 48 -3.9 25
13:30 1014 29.94 843 24.89 6.9 44.5 47 -3.6 25.5
13:35 1014 29.94 843 24.89 7.5 45.4 45 -3.8 25.2
13:40 1014 29.94 843 24.89 7.7 45.8 46 -3.2 26.3
13:45 1014 29.94 843 24.89 7.3 45.1 47 -3.3 26.1
13:50 1014 29.94 843 24.89 6.9 44.4 49 -3.1 26.3
13:55 1014 29.94 843 24.89 6.7 44.1 47 -3.9 25
14:00 1014 29.94 843 24.89 6.3 43.3 50 -3.4 25.8
14:05 1014 29.94 843 24.89 5.7 42.2 51 -3.6 25.5
14:10 1014 29.94 843 24.89 5.4 41.8 52 -3.6 25.5
14:15 1014 29.94 843 24.89 5.7 42.3 51 -3.7 25.3
14:20 1014 29.94 843 24.89 5.8 42.4 51 -3.6 25.6
14:25 1014 29.94 843 24.89 5.3 41.5 52 -3.7 25.4
14:30 1014 29.94 843 24.89 5 40.9 54 -3.6 25.5
14:35 1014 29.94 843 24.89 5 41 54 -3.6 25.6
14:40 1014 29.94 843 24.89 5.5 41.8 51 -3.9 25
14:45 1014 29.94 843 24.89 5.8 42.4 51 -3.7 25.4
14:50 1014 29.94 843 24.89 5.7 42.2 51 -3.8 25.2
14:55 1014 29.94 844 24.92 5.9 42.6 52 -3.2 26.2
15:00 1014 29.94 844 24.92 4.5 40.1 60 -2.6 27.3
15:05 1014 29.94 844 24.92 3.7 38.6 61 -3.2 26.3
15:10 1014 29.94 844 24.92 3.9 39 60 -3.1 26.3
15:15 1014 29.94 844 24.92 4.1 39.4 59 -3.2 26.2
15:20 1014 29.94 844 24.92 4.7 40.4 57 -3.2 26.3
15:25 1014 29.94 844 24.92 5.4 41.6 53 -3.5 25.7
15:30 1014 29.94 844 24.92 5.8 42.4 53 -3.1 26.4
15:35 1014 29.94 844 24.92 5.7 42.3 52 -3.4 25.9
15:40 1014 29.94 844 24.92 5.9 42.7 52 -3.1 26.4
15:45 1014 29.94 844 24.92 5.9 42.5 52 -3.3 26.1
15:50 1014 29.94 844 24.92 5.7 42.3 51 -3.7 25.3
15:55 1014 29.94 844 24.92 5.7 42.3 51 -3.7 25.4
16:00 1014 29.94 844 24.92 5.7 42.2 51 -3.6 25.5
16:05 1014 29.94 844 24.92 5.7 42.2 53 -3.2 26.3
16:10 1015 29.97 844 24.92 5.5 41.9 53 -3.3 26
16:15 1015 29.97 844 24.92 5.6 42.1 55 -2.8 26.9
16:20 1015 29.97 844 24.92 5.2 41.3 57 -2.8 27
16:25 1015 29.97 844 24.92 4.4 39.8 59 -3 26.5
16:30 1015 29.97 844 24.92 4 39.1 60 -3.1 26.4
16:35 1015 29.97 844 24.92 3.9 39 61 -3 26.7
16:40 1015 29.97 844 24.92 3.4 38.2 61 -3.3 26
16:45 1015 29.97 844 24.92 3.5 38.3 61 -3.3 26
16:50 1015 29.97 844 24.92 3.6 38.4 61 -3.2 26.3
16:55 1015 29.97 844 24.92 3.6 38.5 61 -3.3 26.1
17:00 1015 29.97 844 24.92 3.4 38.1 62 -3.1 26.4
17:05 1015 29.97 844 24.92 3 37.3 64 -3.3 26.1
17:10 1015 29.97 844 24.92 3.2 37.8 63 -3.2 26.2
17:15 1015 29.97 844 24.92 3.5 38.2 61 -3.4 26
17:20 1015 29.97 844 24.92 3.6 38.5 61 -3.2 26.3
17:25 1015 29.97 844 24.92 3.8 38.8 59 -3.4 25.9
17:30 1015 29.97 844 24.92 3.6 38.5 60 -3.4 25.9
17:35 1015 29.97 844 24.92 3.4 38.1 62 -3.2 26.3
17:40 1015 29.97 844 24.92 3.4 38.2 61 -3.4 26
17:45 1015 29.97 844 24.92 3.5 38.4 62 -3.1 26.4
17:50 1015 29.97 844 24.92 3.5 38.3 64 -2.6 27.3
17:55 1015 29.97 844 24.92 3.3 38 65 -2.7 27.1
18:00 1015 29.97 844 24.92 3.1 37.6 64 -3 26.6
18:05 1015 29.97 844 24.92 2.9 37.3 65 -3 26.6
18:10 1015 29.97 844 24.92 2.8 37 62 -3.8 25.2
18:15 1015 29.97 844 24.92 3.2 37.8 63 -3.1 26.4
18:20 1015 29.97 844 24.92 2.9 37.2 64 -3.2 26.2
18:25 1015 29.97 844 24.92 2.7 36.8 66 -3.1 26.4
18:30 1015 29.97 844 24.92 2.3 36.1 67 -3.2 26.2
18:35 1015 29.97 844 24.92 2 35.6 66 -3.6 25.4
18:40 1015 29.97 844 24.92 1.8 35.3 66 -3.8 25.1
18:45 1015 29.97 844 24.92 1.9 35.3 66 -3.9 25
18:50 1015 29.97 844 24.92 1.9 35.4 67 -3.6 25.4
18:55 1015 29.97 844 24.92 1.6 34.9 67 -3.9 25
19:00 1015 29.97 844 24.92 1.6 34.9 67 -3.9 25
19:05 1015 29.97 844 24.92 1.4 34.6 68 -3.8 25.1
19:10 1015 29.97 844 24.92 1.1 33.9 69 -4 24.9
19:15 1015 29.97 844 24.92 1.4 34.5 68 -3.9 24.9
19:20 1015 29.97 844 24.92 1.3 34.4 67 -4.1 24.7
19:25 1015 29.97 844 24.92 1.1 34 67 -4.3 24.3
19:30 1015 29.97 844 24.92 1.2 34.1 68 -4.1 24.6
19:35 1015 29.97 844 24.92 1.3 34.4 68 -4 24.7
19:40 1015 29.97 844 24.92 1.7 35 64 -4.3 24.3
19:45 1015 29.97 845 24.95 1.9 35.4 63 -4.4 24.1
19:50 1015 29.97 845 24.95 1.8 35.2 64 -4.4 24.1
19:55 1015 29.97 845 24.95 1.9 35.4 63 -4.4 24
20:00 1016 30 845 24.95 1.7 35.1 63 -4.5 24
20:05 1016 30 845 24.95 1.6 35 64 -4.5 23.8
20:10 1016 30 845 24.95 1.7 35.1 64 -4.5 24
20:15 1016 30 845 24.95 1.7 35 62 -4.7 23.5
20:20 1016 30 845 24.95 1.1 33.9 65 -4.8 23.4
20:25 1016 30 845 24.95 0.9 33.6 68 -4.4 24.1
20:30 1016 30 845 24.95 1 33.8 66 -4.7 23.5
20:35 1016 30 845 24.95 1.5 34.8 64 -4.6 23.8
20:40 1016 30 845 24.95 1.6 34.9 63 -4.6 23.7
20:45 1016 30 845 24.95 1.4 34.4 64 -4.6 23.7
20:50 1016 30 845 24.95 0.9 33.7 67 -4.6 23.7
20:55 1016 30 845 24.95 0.8 33.5 67 -4.6 23.8
21:00 1016 30 845 24.95 1.2 34.2 66 -4.5 23.9
21:05 1016 30 845 24.95 1.2 34.2 66 -4.4 24.1
21:10 1016 30 846 24.98 1.2 34.1 67 -4.3 24.2
21:15 1016 30 846 24.98 0.9 33.7 67 -4.5 23.9
21:20 1016 30 846 24.98 1 33.9 66 -4.6 23.7
21:25 1016 30 846 24.98 1.1 34 65 -4.7 23.5
21:30 1016 30 846 24.98 1.3 34.4 65 -4.6 23.7
21:35 1016 30 846 24.98 1.5 34.7 64 -4.6 23.7
21:40 1016 30 846 24.98 1.5 34.6 65 -4.4 24.1
21:45 1016 30 846 24.98 0.9 33.6 68 -4.4 24.1
21:50 1017 30.03 846 24.98 0.6 33.2 68 -4.5 23.9
21:55 1017 30.03 846 24.98 0.8 33.4 69 -4.4 24.1
22:00 1017 30.03 846 24.98 0.8 33.5 68 -4.5 23.9
22:05 1017 30.03 846 24.98 1 33.8 67 -4.5 23.9
22:10 1017 30.03 846 24.98 1 33.7 67 -4.5 23.9
22:15 1017 30.03 846 24.98 0.9 33.6 67 -4.5 23.8
22:20 1017 30.03 846 24.98 1.4 34.5 65 -4.5 23.9
22:25 1017 30.03 846 24.98 1.7 35.1 63 -4.6 23.8
22:30 1017 30.03 846 24.98 1.9 35.5 63 -4.4 24.1
22:35 1017 30.03 846 24.98 1.9 35.4 64 -4.2 24.4
22:40 1017 30.03 846 24.98 2 35.6 63 -4.2 24.4
22:45 1017 30.03 846 24.98 1.5 34.7 66 -4.2 24.4
22:50 1017 30.03 846 24.98 1.2 34.2 66 -4.5 23.9
22:55 1017 30.03 846 24.98 1.5 34.8 66 -4.1 24.5
23:00 1017 30.03 846 24.98 1.8 35.3 66 -3.9 25
23:05 1017 30.03 847 25.01 1.5 34.7 68 -3.8 25.2
23:10 1017 30.03 847 25.01 1.5 34.7 68 -3.8 25.2
23:15 1017 30.03 847 25.01 1.3 34.4 69 -3.8 25.2
23:20 1017 30.03 847 25.01 1 33.8 71 -3.7 25.3
23:25 1017 30.03 847 25.01 0.9 33.7 71 -3.8 25.2
23:30 1017 30.03 847 25.01 0.9 33.7 70 -3.9 25
23:35 1017 30.03 847 25.01 0.9 33.6 70 -3.9 24.9
23:40 1018 30.06 847 25.01 1 33.7 70 -3.9 25
23:45 1018 30.06 847 25.01 1.1 34 69 -3.9 24.9
23:50 1018 30.06 847 25.01 1.2 34.1 69 -4 24.8
23:55 1018 30.06 847 25.01 1.3 34.3 68 -4 24.8
24:00 1018 30.06 847 25.01 1.3 34.4 68 -4 24.8